KOZR

Cairns AAF (Fort Rucker) Airport

Fort Rucker/Ozark, Alabama, USA
TAF KOZR 170000Z 1700/1806 26006KT 9999 SKC QNH3024INS BECMG 1716/1717 18006KT 9999 BKN040 QNH3018INS BECMG 1800/1801 18006KT 9999 BKN030 QNH3018INS TX15/1721Z TN04/1712Z
Issued Valid From Valid To
Jan-17 @ 00:00 UTC
(5 hours ago)
Jan-17 @ 00:00 UTC
(5 hours ago)
Jan-18 @ 06:00 UTC
(-1 days ago)
Jan-17 @ 00:00 to Jan-17 @ 16:00
TAF KOZR 170000Z 1700/1806 26006KT 9999 SKC QNH3024INS
Wind Visibility Clouds Readings
260° at 6 knots Greater than 6 miles
  • Clear skies
Altimeter 30.24" Hg
Pressure 1023.92 hPa
Becoming Jan-17 @ 16:00 to Jan-18 @ 00:00
BECMG 1716/1717 18006KT 9999 BKN040 QNH3018INS
Wind Visibility Clouds Readings
180° at 6 knots Greater than 6 miles
  • Broken at 4,000' AGL
Altimeter 30.18" Hg
Pressure 1021.92 hPa
Becoming Jan-18 @ 00:00 to Jan-18 @ 06:00
BECMG 1800/1801 18006KT 9999 BKN030 QNH3018INS TX15/1721Z TN04/1712Z
Wind Visibility Clouds Readings
180° at 6 knots Greater than 6 miles
  • Broken at 3,000' AGL
Altimeter 30.18" Hg
Pressure 1021.92 hPa
TAF KOZR 170000Z 1700/1806 26006KT 9999 SKC QNH3024INS BECMG 1716/1717 18006KT 9999 BKN040 QNH3018INS BECMG 1800/1801 18006KT 9999 BKN030 QNH3018INS TX15/1721Z TN04/1712Z
Issued Jan-17 @ 00:00 UTC
(5 hours ago)
Valid From Jan-17 @ 00:00 UTC
(5 hours ago)
Valid To Jan-18 @ 06:00 UTC
(-1 days ago)
Jan-17 @ 00:00 - Jan-17 @ 16:00
Wind Visibility
260° at 6 knots Greater than 6 miles
Clouds
  • Clear skies
Becoming Jan-17 @ 16:00 - Jan-18 @ 00:00
Wind Visibility
180° at 6 knots Greater than 6 miles
Clouds
  • Broken at 4,000' AGL
Becoming Jan-18 @ 00:00 - Jan-18 @ 06:00
Wind Visibility
180° at 6 knots Greater than 6 miles
Clouds
  • Broken at 3,000' AGL